Time;durP1;ratioP1;P1;durP2;ratioP2;P2;SDS_P1;SDS_P2;PMS_P1;PMS_P2;Temp;Humidity;BMP_temperature;BMP_pressure;BME280_temperature;BME280_humidity;BME280_pressure;Samples;Min_cycle;Max_cycle;Signal;HPM_P1;HPM_P2
2021/01/08 00:01:51;;;;;;;4.72;3.67;;;;;;;22.74;41.87;94506.63;5048019;28;20094;-71
2021/01/08 00:04:16;;;;;;;4.97;3.90;;;;;;;22.73;41.86;94521.47;5049196;28;20021;-72
2021/01/08 00:06:42;;;;;;;4.78;3.95;;;;;;;22.71;42.04;94504.94;5039981;28;20049;-72
2021/01/08 00:09:07;;;;;;;5.68;3.40;;;;;;;22.69;41.78;94512.88;5035254;28;20048;-72
2021/01/08 00:11:35;;;;;;;6.13;4.00;;;;;;;22.66;41.89;94513.91;5034403;28;20453;-71
2021/01/08 00:14:01;;;;;;;4.63;3.67;;;;;;;22.65;42.07;94517.88;5033569;28;20022;-72
2021/01/08 00:16:26;;;;;;;4.97;3.90;;;;;;;22.62;41.96;94508.03;5032502;28;20128;-72
2021/01/08 00:18:51;;;;;;;5.80;4.38;;;;;;;22.57;42.19;94500.66;5032489;28;20029;-72
2021/01/08 00:21:17;;;;;;;5.88;4.65;;;;;;;22.56;42.20;94489.06;5032398;28;20065;-72
2021/01/08 00:23:42;;;;;;;5.03;3.97;;;;;;;22.59;42.26;94503.63;5031895;28;20034;-71
2021/01/08 00:26:08;;;;;;;5.55;4.40;;;;;;;22.58;42.04;94491.25;5031311;28;20025;-72
2021/01/08 00:28:33;;;;;;;5.38;3.67;;;;;;;22.54;42.33;94491.56;5032005;28;20067;-72
2021/01/08 00:30:59;;;;;;;5.05;3.97;;;;;;;22.51;42.22;94491.84;5032044;28;20087;-71
2021/01/08 00:33:24;;;;;;;5.07;4.00;;;;;;;22.53;42.12;94497.53;5032092;28;20022;-72
2021/01/08 00:35:50;;;;;;;5.35;4.25;;;;;;;22.47;42.35;94492.16;5032197;28;20040;-71
2021/01/08 00:38:15;;;;;;;5.15;4.13;;;;;;;22.49;42.03;94495.06;5031711;28;20029;-71
2021/01/08 00:40:41;;;;;;;6.00;4.35;;;;;;;22.47;42.07;94497.59;5031738;28;20072;-72
2021/01/08 00:43:06;;;;;;;4.97;3.85;;;;;;;22.46;42.27;94496.13;5031980;28;20048;-72
2021/01/08 00:45:32;;;;;;;5.95;4.18;;;;;;;22.45;42.48;94493.91;5032059;28;20033;-72
2021/01/08 00:47:57;;;;;;;6.05;4.40;;;;;;;22.43;42.55;94496.41;5031225;28;20553;-72
2021/01/08 00:50:23;;;;;;;5.53;4.07;;;;;;;22.42;42.32;94500.41;5031307;28;20048;-70
2021/01/08 00:52:50;;;;;;;6.65;4.35;;;;;;;22.19;42.24;94461.09;5032197;28;20017;-71
2021/01/08 00:55:16;;;;;;;5.38;4.00;;;;;;;22.36;42.34;94494.31;5029568;28;20029;-72
2021/01/08 00:57:41;;;;;;;6.05;4.57;;;;;;;22.37;42.53;94493.03;5030303;28;20123;-71
2021/01/08 01:00:07;;;;;;;5.30;4.13;;;;;;;22.37;42.31;94493.03;5031743;28;20033;-72
2021/01/08 01:02:33;;;;;;;5.05;4.25;;;;;;;22.37;42.33;94492.31;5031471;28;20049;-71
2021/01/08 01:04:58;;;;;;;5.88;4.40;;;;;;;22.34;42.36;94494.06;5030037;28;20521;-73
2021/01/08 01:07:24;;;;;;;5.15;4.30;;;;;;;22.33;42.57;94498.06;5031859;28;20029;-72
2021/01/08 01:09:50;;;;;;;5.38;4.05;;;;;;;22.09;42.80;94468.16;5031562;28;20029;-71
2021/01/08 01:12:15;;;;;;;5.22;4.45;;;;;;;22.24;42.67;94487.53;5030537;28;20029;-72
2021/01/08 01:14:41;;;;;;;5.18;4.38;;;;;;;22.29;42.49;94492.16;5031087;28;20903;-71
2021/01/08 01:17:06;;;;;;;5.47;4.38;;;;;;;22.28;42.60;94501.56;5031124;28;20451;-72
2021/01/08 01:19:32;;;;;;;6.28;4.80;;;;;;;22.27;42.58;94493.91;5031103;28;20029;-72
2021/01/08 01:21:57;;;;;;;6.05;4.15;;;;;;;22.25;42.49;94486.25;5029856;28;20111;-71
2021/01/08 01:24:23;;;;;;;6.15;4.80;;;;;;;22.25;42.69;94486.25;5031226;28;20025;-71
2021/01/08 01:26:53;;;;;;;6.28;4.65;;;;;;;22.24;42.75;94490.25;5031471;28;20562;-72
2021/01/08 01:29:18;;;;;;;6.90;4.82;;;;;;;22.21;42.45;94485.84;5030031;28;20037;-72
2021/01/08 01:31:44;;;;;;;5.50;4.38;;;;;;;22.20;42.28;94484.34;5030709;28;20029;-71
2021/01/08 01:34:09;;;;;;;5.35;4.30;;;;;;;22.19;42.47;94482.84;5031062;28;20033;-71
2021/01/08 01:36:35;;;;;;;5.70;4.60;;;;;;;22.19;42.54;94477.41;5030250;28;20264;-72
2021/01/08 01:39:00;;;;;;;6.15;4.70;;;;;;;22.18;42.55;94475.97;5031117;28;20044;-71
2021/01/08 01:41:26;;;;;;;5.85;4.40;;;;;;;22.18;42.80;94475.97;5031232;28;20025;-72
2021/01/08 01:43:51;;;;;;;6.10;4.75;;;;;;;22.07;42.64;94454.34;5030867;28;20029;-71
2021/01/08 01:46:20;;;;;;;6.05;4.50;;;;;;;22.15;42.81;94460.66;5030359;28;20478;-71
2021/01/08 01:48:47;;;;;;;6.73;4.97;;;;;;;22.13;42.63;94463.16;5030989;28;20633;-72
2021/01/08 01:51:12;;;;;;;6.25;4.65;;;;;;;22.12;42.77;94467.13;5012607;28;20029;-72
2021/01/08 01:53:38;;;;;;;6.10;4.57;;;;;;;22.13;42.66;94474.03;5030481;28;20497;-72
2021/01/08 01:56:04;;;;;;;6.20;4.10;;;;;;;22.11;42.81;94473.81;5029128;28;20128;-71
2021/01/08 01:58:29;;;;;;;6.28;4.78;;;;;;;22.10;42.78;94456.03;5030466;28;20305;-71
2021/01/08 02:00:54;;;;;;;5.97;4.55;;;;;;;22.09;42.79;94472.84;5030418;28;20033;-72
2021/01/08 02:03:26;;;;;;;7.03;4.80;;;;;;;22.08;42.80;94465.97;5030254;28;20136;-72
2021/01/08 02:05:56;;;;;;;6.30;4.40;;;;;;;22.09;42.83;94468.16;5030231;28;20089;-72
2021/01/08 02:08:22;;;;;;;6.45;4.82;;;;;;;22.08;42.76;94461.25;5012846;28;20039;-72
2021/01/08 02:10:52;;;;;;;6.18;4.72;;;;;;;22.05;42.85;94456.84;5029225;28;20026;-72
2021/01/08 02:13:22;;;;;;;6.28;4.55;;;;;;;22.06;42.83;94458.31;5013236;28;20483;-72
2021/01/08 02:15:48;;;;;;;5.90;4.82;;;;;;;21.97;42.84;94445.09;5028656;28;20040;-72
2021/01/08 02:18:13;;;;;;;6.00;4.40;;;;;;;22.04;42.79;94454.63;5028948;28;20026;-72
2021/01/08 02:20:39;;;;;;;7.40;4.63;;;;;;;22.01;42.97;94455.66;5029276;28;20083;-72
2021/01/08 02:23:08;;;;;;;5.78;4.47;;;;;;;22.00;42.76;94449.50;5012344;28;20030;-72
2021/01/08 02:25:33;;;;;;;6.03;4.70;;;;;;;21.98;42.86;94441.09;5028856;28;20482;-72
2021/01/08 02:28:04;;;;;;;6.55;4.70;;;;;;;21.98;42.82;94435.66;5012459;28;20032;-72
2021/01/08 02:30:30;;;;;;;6.07;4.47;;;;;;;21.98;42.89;94430.22;5030313;28;20040;-72
2021/01/08 02:32:56;;;;;;;7.07;4.65;;;;;;;21.98;42.90;94422.06;5028738;28;20151;-72
2021/01/08 02:35:22;;;;;;;6.55;4.95;;;;;;;21.96;42.70;94427.28;5012421;28;20026;-72
2021/01/08 02:37:47;;;;;;;6.47;4.35;;;;;;;21.95;42.95;94414.94;5029341;28;20026;-72
2021/01/08 02:40:13;;;;;;;6.40;4.35;;;;;;;21.96;42.94;94410.25;5029707;28;20025;-72
2021/01/08 02:42:40;;;;;;;5.15;4.10;;;;;;;21.95;42.97;94398.63;5030398;28;20030;-72
2021/01/08 02:45:06;;;;;;;5.60;4.50;;;;;;;21.95;42.85;94400.63;5025735;28;20053;-72
2021/01/08 02:47:31;;;;;;;6.13;4.85;;;;;;;21.77;43.01;94376.16;5010245;28;20549;-72
2021/01/08 02:49:57;;;;;;;6.05;4.50;;;;;;;21.94;42.89;94404.56;5010130;28;20030;-71
2021/01/08 02:52:22;;;;;;;6.10;4.63;;;;;;;21.94;42.91;94396.41;5009994;28;20053;-72
2021/01/08 02:54:48;;;;;;;5.78;4.45;;;;;;;21.92;43.14;94391.50;5025315;28;20018;-72
2021/01/08 02:57:13;;;;;;;6.78;4.60;;;;;;;21.92;42.91;94394.22;5025357;28;20053;-72
2021/01/08 02:59:39;;;;;;;6.50;4.78;;;;;;;21.69;42.91;94369.84;5008820;28;20022;-72
2021/01/08 03:02:04;;;;;;;6.25;4.50;;;;;;;21.92;43.10;94398.22;5025238;28;20048;-71
2021/01/08 03:04:30;;;;;;;6.25;4.30;;;;;;;21.90;42.87;94395.25;5025349;28;20041;-72
2021/01/08 03:06:55;;;;;;;5.75;4.40;;;;;;;21.89;43.06;94391.81;5009695;28;20033;-71
2021/01/08 03:09:21;;;;;;;5.47;4.30;;;;;;;21.89;42.70;94378.22;5008884;28;20030;-72
2021/01/08 03:12:04;;;;;;;5.90;4.38;;;;;;;21.87;42.92;94385.41;5024007;28;20041;-72
2021/01/08 03:14:30;;;;;;;5.93;4.53;;;;;;;21.86;42.97;94378.50;5013371;28;20120;-72
2021/01/08 03:16:55;;;;;;;6.25;4.82;;;;;;;21.83;42.96;94380.28;4996291;28;20022;-72
2021/01/08 03:19:23;;;;;;;5.70;4.50;;;;;;;21.84;42.99;94392.63;5013493;28;20052;-72
2021/01/08 03:21:48;;;;;;;5.35;4.70;;;;;;;21.83;43.13;94374.09;5013923;28;20038;-72
2021/01/08 03:24:14;;;;;;;5.55;4.35;;;;;;;21.83;43.09;94374.09;5013249;28;20113;-72
2021/01/08 03:26:39;;;;;;;6.18;4.40;;;;;;;21.83;43.02;94374.09;5013392;28;20543;-72
2021/01/08 03:29:04;;;;;;;5.72;4.47;;;;;;;21.83;43.05;94365.94;5013459;28;20411;-70
2021/01/08 03:31:30;;;;;;;5.97;4.10;;;;;;;21.82;43.05;94372.63;5013026;28;20812;-72
2021/01/08 03:33:55;;;;;;;5.57;4.30;;;;;;;21.82;42.99;94367.19;5013186;28;20033;-72
2021/01/08 03:36:21;;;;;;;4.95;4.35;;;;;;;21.80;43.08;94358.81;5013490;28;20415;-72
2021/01/08 03:38:46;;;;;;;5.50;4.07;;;;;;;21.78;43.02;94366.75;5013421;28;20030;-72
2021/01/08 03:41:12;;;;;;;5.50;4.28;;;;;;;21.73;43.11;94348.53;5012952;28;20033;-72
2021/01/08 03:43:37;;;;;;;5.78;4.18;;;;;;;21.79;43.05;94351.91;5013013;28;20461;-72
2021/01/08 03:46:03;;;;;;;4.28;3.83;;;;;;;21.44;43.04;94295.06;5013100;28;20037;-72
2021/01/08 03:48:28;;;;;;;5.40;4.22;;;;;;;21.78;42.89;94334.88;5011754;28;20064;-71
2021/01/08 03:50:54;;;;;;;7.50;4.88;;;;;;;21.83;43.02;94344.22;5029386;28;20025;-72
2021/01/08 03:53:19;;;;;;;5.82;4.20;;;;;;;21.86;42.94;94332.31;5032496;28;20017;-72
2021/01/08 03:55:45;;;;;;;5.90;4.25;;;;;;;21.94;43.15;94331.94;5032485;28;20082;-72
2021/01/08 03:58:10;;;;;;;5.40;4.20;;;;;;;21.97;42.79;94330.91;5030909;28;20036;-72
2021/01/08 04:00:36;;;;;;;5.30;3.92;;;;;;;22.00;42.93;94319.00;5032147;28;20026;-72
2021/01/08 04:03:01;;;;;;;5.10;3.97;;;;;;;22.08;42.65;94319.84;5032078;28;20045;-71
2021/01/08 04:05:26;;;;;;;6.15;4.32;;;;;;;22.11;42.76;94324.25;5032363;28;20029;-71
2021/01/08 04:07:52;;;;;;;4.75;4.03;;;;;;;22.15;42.61;94329.38;5032594;28;20022;-72
2021/01/08 04:10:17;;;;;;;6.13;4.00;;;;;;;22.17;42.45;94319.47;5032662;28;20029;-72
2021/01/08 04:12:43;;;;;;;4.82;3.55;;;;;;;22.22;42.42;94301.63;5032152;28;20022;-73
2021/01/08 04:15:09;;;;;;;5.50;3.90;;;;;;;22.23;42.36;94298.41;5031993;28;20032;-72
2021/01/08 04:17:34;;;;;;;5.53;3.85;;;;;;;22.25;42.33;94290.44;5032046;28;20087;-71
2021/01/08 04:19:59;;;;;;;5.03;3.97;;;;;;;22.27;42.36;94287.97;5032198;28;20494;-72
2021/01/08 04:22:25;;;;;;;5.63;4.03;;;;;;;22.29;42.36;94290.88;5031810;28;20288;-72
2021/01/08 04:24:50;;;;;;;5.53;4.00;;;;;;;22.29;42.18;94296.31;5032341;28;20029;-72
2021/01/08 04:27:16;;;;;;;4.65;3.67;;;;;;;22.29;42.27;94273.84;5032152;28;20116;-72
2021/01/08 04:29:42;;;;;;;4.32;3.63;;;;;;;22.33;42.30;94274.25;5032156;28;20482;-72
2021/01/08 04:32:07;;;;;;;5.10;4.15;;;;;;;22.34;42.28;94260.13;5031930;28;20411;-72
2021/01/08 04:34:32;;;;;;;5.70;4.00;;;;;;;22.34;42.30;94262.13;5032065;28;20029;-72
2021/01/08 04:36:58;;;;;;;5.15;3.75;;;;;;;22.35;42.30;94253.44;5031957;28;20100;-72
2021/01/08 04:39:23;;;;;;;4.60;3.58;;;;;;;22.38;41.97;94255.13;5031715;28;20414;-72
2021/01/08 04:41:49;;;;;;;4.78;3.80;;;;;;;22.40;42.00;94255.31;5031746;28;20029;-72
2021/01/08 04:44:15;;;;;;;5.95;3.85;;;;;;;22.41;42.24;94254.81;5030156;28;20014;-71
2021/01/08 04:46:40;;;;;;;4.78;3.47;;;;;;;22.43;42.16;94259.72;5031975;28;20490;-72
2021/01/08 04:49:06;;;;;;;4.43;3.50;;;;;;;22.43;41.90;94257.75;5014281;28;20059;-72
2021/01/08 04:51:35;;;;;;;5.25;3.53;;;;;;;22.41;42.24;94259.53;5031220;28;20064;-72
2021/01/08 04:54:01;;;;;;;4.38;3.20;;;;;;;22.46;42.06;94250.53;5030464;28;20486;-73
2021/01/08 04:56:27;;;;;;;5.00;3.70;;;;;;;22.47;41.99;94241.13;5031816;28;20057;-72
2021/01/08 04:58:52;;;;;;;4.60;3.40;;;;;;;22.47;42.04;94246.56;5013632;28;20498;-72
2021/01/08 05:01:18;;;;;;;5.03;3.67;;;;;;;22.47;42.38;94235.69;5031601;28;20422;-73
2021/01/08 05:03:44;;;;;;;4.88;3.55;;;;;;;22.49;42.09;94233.16;5013600;28;20054;-72
2021/01/08 05:06:09;;;;;;;5.68;3.58;;;;;;;22.50;41.80;94240.06;5030088;28;20018;-72
2021/01/08 05:08:35;;;;;;;4.35;3.30;;;;;;;22.53;41.84;94233.59;5031509;28;20040;-72
2021/01/08 05:11:21;;;;;;;4.65;3.35;;;;;;;22.54;41.97;94256.81;5031307;28;20029;-72
2021/01/08 05:13:54;;;;;;;4.80;3.33;;;;;;;22.55;42.26;94241.97;5030950;28;20104;-72
2021/01/08 05:16:20;;;;;;;4.50;3.30;;;;;;;22.55;41.84;94248.13;5030087;28;20471;-72
2021/01/08 05:18:46;;;;;;;5.13;3.53;;;;;;;22.54;41.93;94251.38;5031730;28;20036;-72
2021/01/08 05:21:12;;;;;;;4.93;3.40;;;;;;;22.43;41.87;94218.91;5028913;28;20087;-72
2021/01/08 05:23:38;;;;;;;4.63;3.30;;;;;;;22.62;41.70;94246.78;5029984;28;20021;-72
2021/01/08 05:26:03;;;;;;;4.07;3.10;;;;;;;22.67;41.66;94248.66;5031091;28;20051;-74
2021/01/08 05:28:29;;;;;;;4.78;3.22;;;;;;;22.71;41.82;94249.81;5006555;28;20025;-77
2021/01/08 05:30:56;;;;;;;4.80;3.38;;;;;;;22.66;41.53;94228.13;5045850;28;20033;-74
2021/01/08 05:33:22;;;;;;;4.32;3.38;;;;;;;22.74;41.49;94227.00;5029107;28;20530;-75
2021/01/08 05:35:48;;;;;;;4.47;3.38;;;;;;;22.76;41.44;94240.81;5020847;28;20029;-76
2021/01/08 05:38:13;;;;;;;4.63;3.28;;;;;;;22.80;41.58;94224.91;5015980;28;20017;-76
2021/01/08 05:40:41;;;;;;;4.25;3.28;;;;;;;22.85;41.30;94231.50;5001134;28;20424;-74
2021/01/08 05:43:06;;;;;;;4.13;2.85;;;;;;;22.57;41.11;94187.75;5014136;28;20041;-77
2021/01/08 05:45:32;;;;;;;5.00;3.67;;;;;;;22.93;41.09;94224.91;5008268;28;20026;-74
2021/01/08 05:47:58;;;;;;;3.80;3.03;;;;;;;23.05;40.90;94245.97;5011878;28;20030;-74
2021/01/08 05:50:25;;;;;;;3.78;2.97;;;;;;;22.88;41.00;94204.72;5011062;28;20038;-73
2021/01/08 05:53:17;;;;;;;4.45;3.35;;;;;;;23.21;40.89;94239.44;5010781;28;20125;-75
2021/01/08 05:55:44;;;;;;;4.43;3.30;;;;;;;23.03;40.62;94199.47;5024793;28;20145;-79
2021/01/08 05:58:19;;;;;;;4.60;3.58;;;;;;;23.40;40.11;94231.88;5007000;28;20065;-74
2021/01/08 06:00:53;;;;;;;4.10;3.20;;;;;;;23.52;39.95;94212.00;5011873;28;20048;-77
2021/01/08 06:03:22;;;;;;;4.35;3.55;;;;;;;23.61;39.92;94219.03;5011503;28;20045;-76
2021/01/08 06:05:54;;;;;;;4.47;3.17;;;;;;;23.71;39.95;94214.63;4994755;28;20060;-74
2021/01/08 06:08:53;;;;;;;5.20;3.83;;;;;;;23.78;39.18;94216.66;5011819;28;20034;-75
2021/01/08 06:11:28;;;;;;;5.30;3.55;;;;;;;23.84;38.90;94222.72;5009941;28;20124;-77
2021/01/08 06:14:00;;;;;;;4.30;3.60;;;;;;;23.96;39.16;94217.22;5009577;28;20410;-75
2021/01/08 06:16:25;;;;;;;4.55;3.40;;;;;;;24.07;38.93;94211.50;5025127;28;20578;-71
2021/01/08 06:18:51;;;;;;;4.68;3.28;;;;;;;24.00;38.81;94182.16;5007607;28;20037;-79
2021/01/08 06:21:17;;;;;;;4.70;3.42;;;;;;;24.13;38.85;94209.38;4992696;28;20054;-82
2021/01/08 06:23:46;;;;;;;4.00;3.17;;;;;;;24.30;38.89;94206.22;5008685;28;20073;-76
2021/01/08 06:26:15;;;;;;;4.57;3.25;;;;;;;24.02;38.24;94149.63;5011728;28;20152;-75
2021/01/08 06:28:49;;;;;;;4.32;3.33;;;;;;;24.47;38.48;94193.66;5010834;28;20038;-82
2021/01/08 06:31:20;;;;;;;4.15;3.10;;;;;;;24.53;38.05;94197.69;5013718;28;20033;-83
2021/01/08 06:33:57;;;;;;;5.18;3.45;;;;;;;24.49;37.92;94180.19;5012845;28;20037;-74
2021/01/08 06:36:24;;;;;;;4.22;3.08;;;;;;;24.62;38.20;94197.22;5012088;28;20026;-77
2021/01/08 06:38:51;;;;;;;3.65;2.88;;;;;;;24.63;38.07;94192.47;5013023;28;20026;-76
2021/01/08 06:41:17;;;;;;;4.13;3.38;;;;;;;24.51;38.07;94161.28;5011790;28;20022;-81
2021/01/08 06:43:47;;;;;;;4.05;3.03;;;;;;;24.69;38.03;94198.50;5014143;28;20087;-75
2021/01/08 06:46:35;;;;;;;4.60;3.30;;;;;;;24.77;37.70;94200.03;5015559;28;20018;-75
2021/01/08 06:49:10;;;;;;;4.80;2.88;;;;;;;24.88;37.33;94203.16;5009862;28;20033;-80
2021/01/08 06:51:36;;;;;;;3.63;2.90;;;;;;;24.98;37.63;94204.13;5016562;28;20029;-76
2021/01/08 06:54:09;;;;;;;3.63;2.92;;;;;;;25.03;37.86;94222.41;5016102;28;20501;-79
2021/01/08 06:56:38;;;;;;;4.18;3.20;;;;;;;25.05;37.76;94219.88;5009913;28;20022;-84
2021/01/08 06:59:05;;;;;;;3.70;2.70;;;;;;;24.85;37.68;94187.13;5011650;28;20055;-84
2021/01/08 07:01:55;;;;;;;4.53;3.42;;;;;;;25.07;37.79;94200.94;5003620;28;20053;-84
2021/01/08 07:04:25;;;;;;;4.50;3.25;;;;;;;25.11;37.80;94212.25;5037255;28;20042;-79
2021/01/08 07:06:50;;;;;;;3.92;2.97;;;;;;;25.10;37.64;94213.53;5023869;28;20037;-74
2021/01/08 07:09:16;;;;;;;4.70;3.35;;;;;;;25.16;37.72;94216.81;5031071;28;20049;-88
2021/01/08 07:11:41;;;;;;;4.25;3.03;;;;;;;25.22;37.25;94211.94;5029741;28;20084;-72
2021/01/08 07:14:14;;;;;;;4.32;3.22;;;;;;;25.24;37.66;94225.78;5016114;28;20466;-80
2021/01/08 07:16:46;;;;;;;3.20;2.63;;;;;;;25.27;37.56;94230.16;5014668;28;20522;-80
2021/01/08 07:19:14;;;;;;;3.17;2.85;;;;;;;25.30;37.26;94231.09;5014594;28;20017;-84
2021/01/08 07:21:44;;;;;;;3.42;2.90;;;;;;;25.36;37.08;94221.47;4999754;28;20030;-76
2021/01/08 07:24:13;;;;;;;;;;;;;;;25.36;37.25;94226.94;5016291;28;20018;-84
2021/01/08 07:26:39;;;;;;;2.92;2.35;;;;;;;25.36;37.27;94205.06;5017942;28;19921;-77
2021/01/08 07:29:08;;;;;;;5.22;2.80;;;;;;;25.51;37.38;94205.09;5040881;28;20025;-74
2021/01/08 07:31:37;;;;;;;3.10;2.40;;;;;;;25.59;36.99;94211.31;5013172;28;20033;-72
2021/01/08 07:34:04;;;;;;;4.07;2.90;;;;;;;25.61;36.95;94214.25;5013058;28;20021;-72
2021/01/08 07:36:39;;;;;;;3.75;2.70;;;;;;;25.61;37.09;94198.56;5014386;28;20076;-72
2021/01/08 07:39:06;;;;;;;3.80;2.88;;;;;;;25.62;36.93;94191.09;5012042;28;20021;-72
2021/01/08 07:41:36;;;;;;;3.53;2.67;;;;;;;25.62;37.05;94193.81;5021711;28;20504;-69
2021/01/08 07:44:01;;;;;;;3.30;2.53;;;;;;;25.67;36.70;94190.25;5010475;28;20014;-67
2021/01/08 07:46:33;;;;;;;3.55;2.95;;;;;;;25.76;36.54;94181.50;5023596;28;20037;-68
2021/01/08 07:49:01;;;;;;;4.00;3.00;;;;;;;25.78;36.50;94178.94;5011418;28;20103;-68
2021/01/08 07:51:46;;;;;;;3.55;2.80;;;;;;;25.78;36.46;94196.09;5011620;28;20048;-69
2021/01/08 07:54:12;;;;;;;3.33;2.90;;;;;;;25.83;36.41;94181.53;5010950;28;20024;-69
2021/01/08 07:57:04;;;;;;;3.63;2.70;;;;;;;25.79;36.63;94184.59;5011636;28;20102;-69
2021/01/08 07:59:30;;;;;;;3.50;2.58;;;;;;;25.82;36.39;94180.78;5009788;28;20142;-69
2021/01/08 08:01:56;;;;;;;3.78;3.00;;;;;;;25.86;36.12;94170.22;5009378;28;20132;-69
2021/01/08 08:04:22;;;;;;;3.50;2.80;;;;;;;25.92;35.98;94145.41;5011101;28;20022;-68
2021/01/08 08:06:48;;;;;;;3.25;2.50;;;;;;;26.00;36.21;94146.88;5022710;28;20026;-68
2021/01/08 08:09:14;;;;;;;4.10;3.33;;;;;;;25.95;36.21;94134.09;5006206;28;20027;-69
2021/01/08 08:11:39;;;;;;;3.97;2.85;;;;;;;25.94;36.25;94143.59;5020094;28;20030;-69
2021/01/08 08:14:05;;;;;;;3.22;2.58;;;;;;;25.95;36.45;94136.84;5011005;28;20026;-68
2021/01/08 08:16:38;;;;;;;3.10;2.42;;;;;;;26.03;36.20;94134.81;5010532;28;20061;-69
2021/01/08 08:19:04;;;;;;;3.08;2.63;;;;;;;26.01;36.27;94148.34;5003248;28;20060;-69
2021/01/08 08:21:30;;;;;;;3.75;2.90;;;;;;;26.03;36.31;94145.78;5010751;28;20080;-69
2021/01/08 08:23:59;;;;;;;6.72;2.90;;;;;;;26.01;36.21;94148.34;5011588;28;20033;-72
2021/01/08 08:26:25;;;;;;;3.50;3.03;;;;;;;26.03;36.20;94134.09;5009709;28;20033;-70
2021/01/08 08:29:15;;;;;;;4.07;3.10;;;;;;;26.04;36.22;94149.97;5011289;28;20108;-71
2021/01/08 08:31:42;;;;;;;3.60;2.88;;;;;;;26.07;35.96;94151.63;4992299;28;20277;-70
2021/01/08 08:34:14;;;;;;;3.72;2.63;;;;;;;26.11;36.03;94124.59;5009757;28;20045;-69
2021/01/08 08:36:40;;;;;;;3.47;2.90;;;;;;;26.14;35.87;94123.50;4993228;28;20037;-68
2021/01/08 08:39:13;;;;;;;3.58;2.83;;;;;;;26.18;35.92;94129.34;5009162;28;20040;-70
2021/01/08 08:41:41;;;;;;;3.25;2.55;;;;;;;26.09;35.76;94110.75;5010784;28;20139;-69
2021/01/08 08:44:08;;;;;;;3.80;3.03;;;;;;;26.19;35.90;94141.75;5009160;28;20086;-68
2021/01/08 08:46:56;;;;;;;4.30;3.20;;;;;;;26.13;35.57;94138.47;5009882;28;20465;-69
2021/01/08 08:49:30;;;;;;;3.80;3.13;;;;;;;26.18;35.65;94134.81;5009616;28;20028;-69
2021/01/08 08:51:55;;;;;;;3.53;2.95;;;;;;;26.23;35.65;94125.69;5010767;28;20116;-69
2021/01/08 08:54:23;;;;;;;4.32;3.15;;;;;;;26.04;35.85;94108.22;5008885;28;20014;-68
2021/01/08 08:56:55;;;;;;;3.95;2.97;;;;;;;26.26;35.41;94119.13;4993379;28;20022;-68
2021/01/08 08:59:46;;;;;;;4.65;3.00;;;;;;;26.25;35.49;94128.63;5010437;28;20049;-70
2021/01/08 09:02:20;;;;;;;3.95;2.90;;;;;;;26.23;35.69;94131.16;4998384;28;20416;-72
2021/01/08 09:04:58;;;;;;;5.10;3.55;;;;;;;26.23;37.21;94125.69;5011708;28;20030;-73
2021/01/08 09:07:34;;;;;;;4.78;3.85;;;;;;;26.21;37.66;94109.09;5010940;28;20560;-73
2021/01/08 09:10:23;;;;;;;5.45;3.20;;;;;;;26.23;37.45;94109.25;5011789;28;20025;-72
2021/01/08 09:13:14;;;;;;;6.93;3.08;;;;;;;26.19;37.60;94114.41;5009135;28;20026;-72
2021/01/08 09:16:10;;;;;;;3.35;2.95;;;;;;;26.20;37.28;94115.84;4997054;28;20037;-72
2021/01/08 09:18:36;;;;;;;6.18;3.22;;;;;;;26.18;37.58;94101.97;5010467;28;20542;-70
2021/01/08 09:21:22;;;;;;;4.82;3.30;;;;;;;26.06;37.13;94089.94;5009608;28;20026;-71
2021/01/08 09:23:48;;;;;;;4.40;2.88;;;;;;;26.27;37.30;94115.09;5008719;28;20037;-70
2021/01/08 09:26:14;;;;;;;4.22;3.17;;;;;;;26.33;36.97;94110.19;5010016;28;20108;-73
2021/01/08 09:28:47;;;;;;;4.40;3.08;;;;;;;26.28;37.20;94109.09;5009187;28;20028;-71
2021/01/08 09:31:13;;;;;;;4.28;3.20;;;;;;;26.28;36.93;94100.19;5008518;28;20069;-71
2021/01/08 09:33:38;;;;;;;3.85;3.10;;;;;;;26.24;36.92;94088.84;5009149;28;20026;-70
2021/01/08 09:36:05;;;;;;;5.05;3.28;;;;;;;26.17;37.23;94097.78;5009635;28;20104;-75
2021/01/08 09:38:31;;;;;;;6.85;4.90;;;;;;;26.18;36.03;94096.50;5010269;28;20032;-76
2021/01/08 09:40:57;;;;;;;6.47;3.70;;;;;;;26.19;36.37;94103.44;5010709;28;20112;-70
2021/01/08 09:43:25;;;;;;;5.03;3.33;;;;;;;26.21;36.33;94078.97;5009965;28;20026;-72
2021/01/08 09:46:03;;;;;;;5.43;3.40;;;;;;;26.11;36.46;94075.34;5009673;28;20045;-72
2021/01/08 09:48:29;;;;;;;4.45;3.42;;;;;;;26.22;36.65;94099.59;5009278;28;20026;-72
2021/01/08 09:51:05;;;;;;;5.97;3.70;;;;;;;26.23;36.42;94070.94;4993278;28;20024;-71
2021/01/08 09:53:32;;;;;;;4.18;3.53;;;;;;;26.21;36.49;94083.75;5009862;28;20026;-71
2021/01/08 09:56:11;;;;;;;5.10;3.55;;;;;;;26.24;36.46;94066.22;5010396;28;20072;-72
2021/01/08 09:58:37;;;;;;;4.38;3.33;;;;;;;26.22;36.52;94061.28;5008774;28;20499;-71
2021/01/08 10:01:02;;;;;;;4.47;3.40;;;;;;;26.23;36.38;94060.00;5008786;28;20053;-71
2021/01/08 10:03:28;;;;;;;4.00;3.08;;;;;;;26.22;36.55;94047.59;5009377;28;20077;-71
2021/01/08 10:06:04;;;;;;;4.70;3.63;;;;;;;26.18;36.42;94063.66;5008122;28;20041;-72
2021/01/08 10:08:29;;;;;;;5.18;3.70;;;;;;;26.23;36.37;94043.56;5009312;28;20030;-70
2021/01/08 10:10:54;;;;;;;9.75;4.05;;;;;;;26.19;36.20;94040.50;5009727;28;20034;-69
2021/01/08 10:13:21;;;;;;;5.68;3.60;;;;;;;26.22;36.49;94022.97;5008323;28;20526;-70
2021/01/08 10:15:48;;;;;;;5.72;3.75;;;;;;;26.28;36.58;94023.53;4987801;28;20045;-70
2021/01/08 10:18:14;;;;;;;5.13;3.55;;;;;;;26.25;36.78;94030.06;5006536;28;20034;-69
2021/01/08 10:20:50;;;;;;;4.47;3.60;;;;;;;25.80;36.83;93958.31;5012066;28;20036;-69
2021/01/08 10:23:20;;;;;;;5.47;3.83;;;;;;;26.00;37.11;93993.63;5011482;28;20545;-69
2021/01/08 10:25:46;;;;;;;3.97;3.53;;;;;;;26.20;37.04;94022.78;5007233;28;20026;-70
2021/01/08 10:28:14;;;;;;;6.03;3.55;;;;;;;26.23;36.91;94032.63;5013406;28;20033;-69
2021/01/08 10:30:40;;;;;;;4.70;3.33;;;;;;;26.23;36.79;94027.16;5013020;28;20121;-73
2021/01/08 10:33:06;;;;;;;5.05;3.70;;;;;;;26.23;36.93;94024.41;5015865;28;20116;-83
2021/01/08 10:35:32;;;;;;;4.88;3.90;;;;;;;26.26;36.93;94004.16;5013548;28;20033;-75
2021/01/08 10:37:57;;;;;;;5.60;3.80;;;;;;;26.32;36.76;94010.19;5014875;28;20046;-74
2021/01/08 10:40:23;;;;;;;4.72;3.60;;;;;;;26.34;36.93;94004.91;5014049;28;20410;-76
2021/01/08 10:42:50;;;;;;;5.20;3.50;;;;;;;26.34;36.90;94004.91;5014830;28;20057;-78
2021/01/08 10:45:16;;;;;;;4.88;3.50;;;;;;;26.31;36.72;94006.00;5015279;28;20088;-73
2021/01/08 10:47:41;;;;;;;4.70;3.70;;;;;;;26.27;36.92;94000.13;5014013;28;20595;-78
2021/01/08 10:50:07;;;;;;;4.38;3.42;;;;;;;26.24;36.88;93984.81;5014821;28;20029;-77
2021/01/08 10:52:33;;;;;;;4.63;3.50;;;;;;;26.23;36.88;93983.34;5015341;28;20025;-78
2021/01/08 10:54:59;;;;;;;6.32;4.00;;;;;;;26.23;36.94;93988.81;5015790;28;20022;-76
2021/01/08 10:57:25;;;;;;;5.47;3.83;;;;;;;26.22;37.05;93973.69;5014438;28;20018;-73
2021/01/08 10:59:50;;;;;;;4.95;3.50;;;;;;;26.20;36.68;93989.94;5014437;28;20025;-75
2021/01/08 11:02:16;;;;;;;6.18;3.65;;;;;;;26.23;36.87;93977.88;5012304;28;20049;-74
2021/01/08 11:04:42;;;;;;;4.40;3.50;;;;;;;26.18;36.75;93943.25;5016182;28;20046;-74
2021/01/08 11:07:08;;;;;;;4.97;3.88;;;;;;;26.33;36.72;93976.78;5023458;28;20021;-76
2021/01/08 11:09:34;;;;;;;5.05;3.60;;;;;;;26.36;36.68;93964.00;5031863;28;20022;-77
2021/01/08 11:12:00;;;;;;;5.63;3.50;;;;;;;26.37;36.75;93976.41;5030769;28;20025;-78
2021/01/08 11:14:25;;;;;;;4.13;3.67;;;;;;;26.30;36.47;93958.00;5020131;28;20026;-74
2021/01/08 11:16:51;;;;;;;5.28;3.50;;;;;;;26.27;36.33;93939.91;5016041;28;20038;-74
2021/01/08 11:19:16;;;;;;;5.55;3.85;;;;;;;26.34;36.93;93944.66;5011306;28;20094;-77
2021/01/08 11:21:42;;;;;;;5.13;3.80;;;;;;;26.30;36.87;93941.56;5009407;28;20043;-75
2021/01/08 11:24:07;;;;;;;5.78;3.97;;;;;;;26.37;36.92;93938.81;5014068;28;20018;-70
2021/01/08 11:26:33;;;;;;;4.90;4.00;;;;;;;26.38;37.02;93923.84;5012894;28;20037;-69
2021/01/08 11:28:58;;;;;;;6.30;4.63;;;;;;;26.39;36.72;93919.81;5013824;28;20111;-74
2021/01/08 11:31:50;;;;;;;5.57;3.72;;;;;;;26.37;36.96;93924.41;5013179;28;20030;-71
2021/01/08 11:34:15;;;;;;;5.30;3.70;;;;;;;26.37;36.81;93916.91;5011626;28;20606;-76
2021/01/08 11:36:41;;;;;;;5.45;4.03;;;;;;;26.40;36.69;93912.34;5013433;28;20022;-72
2021/01/08 11:39:07;;;;;;;6.30;3.97;;;;;;;26.44;36.75;93909.94;5012935;28;20108;-75